sensor_id;sensor_type;location;lat;lon;timestamp;P1;durP1;ratioP1;P2;durP2;ratioP2
65037;SDS011;51605;47.040;15.294;2022-08-21T00:02:15;1.17;;;0.70;;
65037;SDS011;51605;47.040;15.294;2022-08-21T00:04:47;0.50;;;0.50;;
65037;SDS011;51605;47.040;15.294;2022-08-21T00:07:13;1.67;;;0.52;;
65037;SDS011;51605;47.040;15.294;2022-08-21T00:09:39;0.53;;;0.50;;
65037;SDS011;51605;47.040;15.294;2022-08-21T00:12:05;0.77;;;0.60;;
65037;SDS011;51605;47.040;15.294;2022-08-21T00:14:31;0.60;;;0.50;;
65037;SDS011;51605;47.040;15.294;2022-08-21T00:16:57;0.33;;;0.30;;
65037;SDS011;51605;47.040;15.294;2022-08-21T00:19:23;0.75;;;0.45;;
65037;SDS011;51605;47.040;15.294;2022-08-21T00:21:50;0.60;;;0.50;;
65037;SDS011;51605;47.040;15.294;2022-08-21T00:24:17;0.50;;;0.47;;
65037;SDS011;51605;47.040;15.294;2022-08-21T00:26:43;1.08;;;0.55;;
65037;SDS011;51605;47.040;15.294;2022-08-21T00:29:09;1.13;;;0.57;;
65037;SDS011;51605;47.040;15.294;2022-08-21T00:31:35;1.07;;;0.50;;
65037;SDS011;51605;47.040;15.294;2022-08-21T00:34:00;0.70;;;0.70;;
65037;SDS011;51605;47.040;15.294;2022-08-21T00:36:27;0.50;;;0.50;;
65037;SDS011;51605;47.040;15.294;2022-08-21T00:38:53;0.52;;;0.40;;
65037;SDS011;51605;47.040;15.294;2022-08-21T00:41:19;0.80;;;0.80;;
65037;SDS011;51605;47.040;15.294;2022-08-21T00:43:45;0.40;;;0.40;;
65037;SDS011;51605;47.040;15.294;2022-08-21T00:46:10;0.57;;;0.57;;
65037;SDS011;51605;47.040;15.294;2022-08-21T00:48:36;0.65;;;0.60;;
65037;SDS011;51605;47.040;15.294;2022-08-21T00:51:10;0.50;;;0.50;;
65037;SDS011;51605;47.040;15.294;2022-08-21T00:53:47;0.50;;;0.50;;
65037;SDS011;51605;47.040;15.294;2022-08-21T00:56:17;0.70;;;0.50;;
65037;SDS011;51605;47.040;15.294;2022-08-21T00:58:44;0.50;;;0.50;;
65037;SDS011;51605;47.040;15.294;2022-08-21T01:01:10;0.68;;;0.57;;
65037;SDS011;51605;47.040;15.294;2022-08-21T01:03:36;0.63;;;0.55;;
65037;SDS011;51605;47.040;15.294;2022-08-21T01:06:03;2.27;;;0.50;;
65037;SDS011;51605;47.040;15.294;2022-08-21T01:08:29;0.50;;;0.50;;
65037;SDS011;51605;47.040;15.294;2022-08-21T01:10:56;0.50;;;0.50;;
65037;SDS011;51605;47.040;15.294;2022-08-21T01:13:22;0.50;;;0.50;;
65037;SDS011;51605;47.040;15.294;2022-08-21T01:15:49;0.70;;;0.50;;
65037;SDS011;51605;47.040;15.294;2022-08-21T01:18:18;0.65;;;0.40;;
65037;SDS011;51605;47.040;15.294;2022-08-21T01:23:29;0.50;;;0.50;;
65037;SDS011;51605;47.040;15.294;2022-08-21T01:25:56;0.60;;;0.50;;
65037;SDS011;51605;47.040;15.294;2022-08-21T01:28:22;0.65;;;0.43;;
65037;SDS011;51605;47.040;15.294;2022-08-21T01:30:50;0.43;;;0.43;;
65037;SDS011;51605;47.040;15.294;2022-08-21T01:33:20;0.68;;;0.68;;
65037;SDS011;51605;47.040;15.294;2022-08-21T01:35:48;1.55;;;0.47;;
65037;SDS011;51605;47.040;15.294;2022-08-21T01:38:14;0.70;;;0.45;;
65037;SDS011;51605;47.040;15.294;2022-08-21T01:40:40;0.50;;;0.50;;
65037;SDS011;51605;47.040;15.294;2022-08-21T01:43:05;0.30;;;0.30;;
65037;SDS011;51605;47.040;15.294;2022-08-21T01:45:31;0.57;;;0.57;;
65037;SDS011;51605;47.040;15.294;2022-08-21T01:47:57;0.83;;;0.50;;
65037;SDS011;51605;47.040;15.294;2022-08-21T01:50:23;0.80;;;0.40;;
65037;SDS011;51605;47.040;15.294;2022-08-21T01:52:49;0.43;;;0.43;;
65037;SDS011;51605;47.040;15.294;2022-08-21T01:55:15;0.55;;;0.50;;
65037;SDS011;51605;47.040;15.294;2022-08-21T01:57:43;0.40;;;0.40;;
65037;SDS011;51605;47.040;15.294;2022-08-21T02:02:36;0.50;;;0.40;;
65037;SDS011;51605;47.040;15.294;2022-08-21T02:05:04;0.52;;;0.52;;
65037;SDS011;51605;47.040;15.294;2022-08-21T02:07:37;0.50;;;0.50;;
65037;SDS011;51605;47.040;15.294;2022-08-21T02:10:25;0.73;;;0.50;;
65037;SDS011;51605;47.040;15.294;2022-08-21T02:12:54;0.50;;;0.50;;
65037;SDS011;51605;47.040;15.294;2022-08-21T02:17:47;0.88;;;0.60;;
65037;SDS011;51605;47.040;15.294;2022-08-21T02:20:17;0.43;;;0.43;;
65037;SDS011;51605;47.040;15.294;2022-08-21T02:22:48;1.08;;;0.50;;
65037;SDS011;51605;47.040;15.294;2022-08-21T02:25:14;0.55;;;0.47;;
65037;SDS011;51605;47.040;15.294;2022-08-21T02:27:41;0.45;;;0.45;;
65037;SDS011;51605;47.040;15.294;2022-08-21T02:30:13;0.52;;;0.52;;
65037;SDS011;51605;47.040;15.294;2022-08-21T02:32:41;1.08;;;0.50;;
65037;SDS011;51605;47.040;15.294;2022-08-21T02:35:07;0.40;;;0.40;;
65037;SDS011;51605;47.040;15.294;2022-08-21T02:37:34;0.50;;;0.50;;
65037;SDS011;51605;47.040;15.294;2022-08-21T02:40:08;0.50;;;0.50;;
65037;SDS011;51605;47.040;15.294;2022-08-21T02:42:36;0.77;;;0.60;;
65037;SDS011;51605;47.040;15.294;2022-08-21T02:45:04;0.98;;;0.40;;
65037;SDS011;51605;47.040;15.294;2022-08-21T02:47:30;1.48;;;0.50;;
65037;SDS011;51605;47.040;15.294;2022-08-21T02:49:55;0.50;;;0.50;;
65037;SDS011;51605;47.040;15.294;2022-08-21T02:52:21;0.40;;;0.40;;
65037;SDS011;51605;47.040;15.294;2022-08-21T02:54:47;0.97;;;0.60;;
65037;SDS011;51605;47.040;15.294;2022-08-21T02:57:13;0.50;;;0.50;;
65037;SDS011;51605;47.040;15.294;2022-08-21T02:59:39;0.50;;;0.50;;
65037;SDS011;51605;47.040;15.294;2022-08-21T03:02:05;0.50;;;0.50;;
65037;SDS011;51605;47.040;15.294;2022-08-21T03:04:31;0.53;;;0.43;;
65037;SDS011;51605;47.040;15.294;2022-08-21T03:06:57;0.70;;;0.70;;
65037;SDS011;51605;47.040;15.294;2022-08-21T03:09:22;0.60;;;0.60;;
65037;SDS011;51605;47.040;15.294;2022-08-21T03:11:49;0.73;;;0.50;;
65037;SDS011;51605;47.040;15.294;2022-08-21T03:14:16;0.50;;;0.50;;
65037;SDS011;51605;47.040;15.294;2022-08-21T03:16:43;0.60;;;0.60;;
65037;SDS011;51605;47.040;15.294;2022-08-21T03:19:08;0.80;;;0.40;;
65037;SDS011;51605;47.040;15.294;2022-08-21T03:21:34;0.50;;;0.50;;
65037;SDS011;51605;47.040;15.294;2022-08-21T03:24:00;0.60;;;0.60;;
65037;SDS011;51605;47.040;15.294;2022-08-21T03:26:26;0.87;;;0.67;;
65037;SDS011;51605;47.040;15.294;2022-08-21T03:28:51;0.77;;;0.67;;
65037;SDS011;51605;47.040;15.294;2022-08-21T03:31:17;0.53;;;0.50;;
65037;SDS011;51605;47.040;15.294;2022-08-21T03:33:43;0.70;;;0.70;;
65037;SDS011;51605;47.040;15.294;2022-08-21T03:36:09;0.63;;;0.63;;
65037;SDS011;51605;47.040;15.294;2022-08-21T03:38:36;0.50;;;0.50;;
65037;SDS011;51605;47.040;15.294;2022-08-21T03:41:06;0.50;;;0.50;;
65037;SDS011;51605;47.040;15.294;2022-08-21T03:43:32;1.02;;;0.50;;
65037;SDS011;51605;47.040;15.294;2022-08-21T03:45:58;0.65;;;0.50;;
65037;SDS011;51605;47.040;15.294;2022-08-21T03:48:25;0.60;;;0.60;;
65037;SDS011;51605;47.040;15.294;2022-08-21T03:50:51;0.60;;;0.60;;
65037;SDS011;51605;47.040;15.294;2022-08-21T03:53:17;0.50;;;0.50;;
65037;SDS011;51605;47.040;15.294;2022-08-21T03:55:44;0.50;;;0.50;;
65037;SDS011;51605;47.040;15.294;2022-08-21T03:58:11;0.47;;;0.47;;
65037;SDS011;51605;47.040;15.294;2022-08-21T04:00:37;0.50;;;0.50;;
65037;SDS011;51605;47.040;15.294;2022-08-21T04:03:03;0.43;;;0.43;;
65037;SDS011;51605;47.040;15.294;2022-08-21T04:05:29;0.77;;;0.57;;
65037;SDS011;51605;47.040;15.294;2022-08-21T04:07:58;1.17;;;0.60;;
65037;SDS011;51605;47.040;15.294;2022-08-21T04:10:29;0.57;;;0.50;;
65037;SDS011;51605;47.040;15.294;2022-08-21T04:12:57;0.60;;;0.60;;
65037;SDS011;51605;47.040;15.294;2022-08-21T04:15:23;0.50;;;0.50;;
65037;SDS011;51605;47.040;15.294;2022-08-21T04:17:50;1.55;;;0.60;;
65037;SDS011;51605;47.040;15.294;2022-08-21T04:20:19;1.17;;;0.60;;
65037;SDS011;51605;47.040;15.294;2022-08-21T04:22:46;0.82;;;0.60;;
65037;SDS011;51605;47.040;15.294;2022-08-21T04:25:13;0.65;;;0.65;;
65037;SDS011;51605;47.040;15.294;2022-08-21T04:27:40;0.93;;;0.60;;
65037;SDS011;51605;47.040;15.294;2022-08-21T04:30:07;0.68;;;0.60;;
65037;SDS011;51605;47.040;15.294;2022-08-21T04:32:34;0.50;;;0.50;;
65037;SDS011;51605;47.040;15.294;2022-08-21T04:37:29;0.70;;;0.65;;
65037;SDS011;51605;47.040;15.294;2022-08-21T04:39:54;0.57;;;0.57;;
65037;SDS011;51605;47.040;15.294;2022-08-21T04:42:23;0.73;;;0.70;;
65037;SDS011;51605;47.040;15.294;2022-08-21T04:44:50;1.83;;;0.60;;
65037;SDS011;51605;47.040;15.294;2022-08-21T04:47:16;0.60;;;0.52;;
65037;SDS011;51605;47.040;15.294;2022-08-21T04:49:42;0.73;;;0.60;;
65037;SDS011;51605;47.040;15.294;2022-08-21T04:52:08;1.20;;;0.63;;
65037;SDS011;51605;47.040;15.294;2022-08-21T04:54:34;0.50;;;0.50;;
65037;SDS011;51605;47.040;15.294;2022-08-21T04:57:01;0.50;;;0.50;;
65037;SDS011;51605;47.040;15.294;2022-08-21T04:59:34;0.50;;;0.50;;
65037;SDS011;51605;47.040;15.294;2022-08-21T05:02:03;0.55;;;0.55;;
65037;SDS011;51605;47.040;15.294;2022-08-21T05:04:30;0.60;;;0.60;;
65037;SDS011;51605;47.040;15.294;2022-08-21T05:06:59;1.10;;;0.60;;
65037;SDS011;51605;47.040;15.294;2022-08-21T05:09:28;0.60;;;0.60;;
65037;SDS011;51605;47.040;15.294;2022-08-21T05:11:55;0.95;;;0.70;;
65037;SDS011;51605;47.040;15.294;2022-08-21T05:14:21;0.70;;;0.70;;
65037;SDS011;51605;47.040;15.294;2022-08-21T05:19:15;0.77;;;0.68;;
65037;SDS011;51605;47.040;15.294;2022-08-21T05:21:42;0.80;;;0.73;;
65037;SDS011;51605;47.040;15.294;2022-08-21T05:24:09;1.25;;;0.70;;
65037;SDS011;51605;47.040;15.294;2022-08-21T05:29:03;0.73;;;0.60;;
65037;SDS011;51605;47.040;15.294;2022-08-21T05:31:29;0.55;;;0.55;;
65037;SDS011;51605;47.040;15.294;2022-08-21T05:33:54;1.30;;;0.60;;
65037;SDS011;51605;47.040;15.294;2022-08-21T05:36:20;0.70;;;0.70;;
65037;SDS011;51605;47.040;15.294;2022-08-21T05:38:47;1.45;;;0.63;;
65037;SDS011;51605;47.040;15.294;2022-08-21T05:41:13;2.30;;;0.60;;
65037;SDS011;51605;47.040;15.294;2022-08-21T05:43:39;0.93;;;0.70;;
65037;SDS011;51605;47.040;15.294;2022-08-21T05:46:05;0.73;;;0.70;;
65037;SDS011;51605;47.040;15.294;2022-08-21T05:48:33;0.80;;;0.80;;
65037;SDS011;51605;47.040;15.294;2022-08-21T05:51:04;1.23;;;0.70;;
65037;SDS011;51605;47.040;15.294;2022-08-21T05:53:35;0.60;;;0.60;;
65037;SDS011;51605;47.040;15.294;2022-08-21T05:56:01;0.95;;;0.70;;
65037;SDS011;51605;47.040;15.294;2022-08-21T05:58:28;0.95;;;0.60;;
65037;SDS011;51605;47.040;15.294;2022-08-21T06:00:56;0.60;;;0.60;;
65037;SDS011;51605;47.040;15.294;2022-08-21T06:03:24;0.60;;;0.60;;
65037;SDS011;51605;47.040;15.294;2022-08-21T06:05:52;0.68;;;0.68;;
65037;SDS011;51605;47.040;15.294;2022-08-21T06:08:19;1.50;;;0.70;;
65037;SDS011;51605;47.040;15.294;2022-08-21T06:10:46;0.70;;;0.70;;
65037;SDS011;51605;47.040;15.294;2022-08-21T06:13:13;0.70;;;0.70;;
65037;SDS011;51605;47.040;15.294;2022-08-21T06:15:40;0.65;;;0.65;;
65037;SDS011;51605;47.040;15.294;2022-08-21T06:18:06;0.50;;;0.50;;
65037;SDS011;51605;47.040;15.294;2022-08-21T06:20:32;0.65;;;0.65;;
65037;SDS011;51605;47.040;15.294;2022-08-21T06:22:59;0.77;;;0.70;;
65037;SDS011;51605;47.040;15.294;2022-08-21T06:25:25;0.77;;;0.68;;
65037;SDS011;51605;47.040;15.294;2022-08-21T06:27:51;0.70;;;0.70;;
65037;SDS011;51605;47.040;15.294;2022-08-21T06:30:17;0.60;;;0.60;;
65037;SDS011;51605;47.040;15.294;2022-08-21T06:32:43;0.60;;;0.60;;
65037;SDS011;51605;47.040;15.294;2022-08-21T06:35:09;0.60;;;0.60;;
65037;SDS011;51605;47.040;15.294;2022-08-21T06:37:36;0.63;;;0.60;;
65037;SDS011;51605;47.040;15.294;2022-08-21T06:40:03;0.77;;;0.73;;
65037;SDS011;51605;47.040;15.294;2022-08-21T06:42:29;0.77;;;0.70;;
65037;SDS011;51605;47.040;15.294;2022-08-21T06:44:56;0.73;;;0.73;;
65037;SDS011;51605;47.040;15.294;2022-08-21T06:47:22;0.60;;;0.60;;
65037;SDS011;51605;47.040;15.294;2022-08-21T06:49:47;0.70;;;0.70;;
65037;SDS011;51605;47.040;15.294;2022-08-21T06:52:13;0.70;;;0.70;;
65037;SDS011;51605;47.040;15.294;2022-08-21T06:54:39;0.60;;;0.60;;
65037;SDS011;51605;47.040;15.294;2022-08-21T06:57:05;1.70;;;0.60;;
65037;SDS011;51605;47.040;15.294;2022-08-21T06:59:31;0.70;;;0.70;;
65037;SDS011;51605;47.040;15.294;2022-08-21T07:01:58;1.43;;;0.70;;
65037;SDS011;51605;47.040;15.294;2022-08-21T07:04:24;0.60;;;0.60;;
65037;SDS011;51605;47.040;15.294;2022-08-21T07:06:49;0.60;;;0.60;;
65037;SDS011;51605;47.040;15.294;2022-08-21T07:09:15;1.33;;;0.70;;
65037;SDS011;51605;47.040;15.294;2022-08-21T07:11:41;2.03;;;0.60;;
65037;SDS011;51605;47.040;15.294;2022-08-21T07:14:08;0.70;;;0.70;;
65037;SDS011;51605;47.040;15.294;2022-08-21T07:16:34;1.67;;;0.60;;
65037;SDS011;51605;47.040;15.294;2022-08-21T07:19:00;1.90;;;0.52;;
65037;SDS011;51605;47.040;15.294;2022-08-21T07:21:25;2.63;;;0.70;;
65037;SDS011;51605;47.040;15.294;2022-08-21T07:23:51;0.73;;;0.60;;
65037;SDS011;51605;47.040;15.294;2022-08-21T07:26:19;1.90;;;0.70;;
65037;SDS011;51605;47.040;15.294;2022-08-21T07:28:49;0.90;;;0.80;;
65037;SDS011;51605;47.040;15.294;2022-08-21T07:31:16;1.10;;;0.80;;
65037;SDS011;51605;47.040;15.294;2022-08-21T07:33:44;0.80;;;0.70;;
65037;SDS011;51605;47.040;15.294;2022-08-21T07:36:10;2.17;;;0.90;;
65037;SDS011;51605;47.040;15.294;2022-08-21T07:38:36;0.80;;;0.80;;
65037;SDS011;51605;47.040;15.294;2022-08-21T07:41:02;1.27;;;0.80;;
65037;SDS011;51605;47.040;15.294;2022-08-21T07:43:38;1.00;;;0.80;;
65037;SDS011;51605;47.040;15.294;2022-08-21T07:46:04;0.90;;;0.80;;
65037;SDS011;51605;47.040;15.294;2022-08-21T07:48:30;0.73;;;0.73;;
65037;SDS011;51605;47.040;15.294;2022-08-21T07:50:56;0.90;;;0.80;;
65037;SDS011;51605;47.040;15.294;2022-08-21T07:53:22;1.17;;;0.90;;
65037;SDS011;51605;47.040;15.294;2022-08-21T07:55:48;1.03;;;0.80;;
65037;SDS011;51605;47.040;15.294;2022-08-21T07:58:13;0.93;;;0.90;;
65037;SDS011;51605;47.040;15.294;2022-08-21T08:00:39;1.02;;;0.80;;
65037;SDS011;51605;47.040;15.294;2022-08-21T08:03:05;1.02;;;0.68;;
65037;SDS011;51605;47.040;15.294;2022-08-21T08:05:31;1.08;;;0.90;;
65037;SDS011;51605;47.040;15.294;2022-08-21T08:07:58;1.85;;;0.85;;
65037;SDS011;51605;47.040;15.294;2022-08-21T08:10:24;4.38;;;1.08;;
65037;SDS011;51605;47.040;15.294;2022-08-21T08:12:50;0.85;;;0.80;;
65037;SDS011;51605;47.040;15.294;2022-08-21T08:15:19;2.15;;;0.80;;
65037;SDS011;51605;47.040;15.294;2022-08-21T08:17:47;2.13;;;0.90;;
65037;SDS011;51605;47.040;15.294;2022-08-21T08:20:14;2.67;;;0.90;;
65037;SDS011;51605;47.040;15.294;2022-08-21T08:22:41;1.63;;;0.88;;
65037;SDS011;51605;47.040;15.294;2022-08-21T08:25:08;2.63;;;1.17;;
65037;SDS011;51605;47.040;15.294;2022-08-21T08:27:35;2.10;;;1.10;;
65037;SDS011;51605;47.040;15.294;2022-08-21T08:30:02;2.22;;;1.00;;
65037;SDS011;51605;47.040;15.294;2022-08-21T08:32:29;4.82;;;1.10;;
65037;SDS011;51605;47.040;15.294;2022-08-21T08:34:55;2.70;;;1.40;;
65037;SDS011;51605;47.040;15.294;2022-08-21T08:37:20;2.87;;;1.70;;
65037;SDS011;51605;47.040;15.294;2022-08-21T08:39:46;4.67;;;1.73;;
65037;SDS011;51605;47.040;15.294;2022-08-21T08:44:43;2.88;;;1.20;;
65037;SDS011;51605;47.040;15.294;2022-08-21T08:47:10;2.42;;;1.10;;
65037;SDS011;51605;47.040;15.294;2022-08-21T08:49:41;2.53;;;1.20;;
65037;SDS011;51605;47.040;15.294;2022-08-21T08:52:22;2.35;;;1.00;;
65037;SDS011;51605;47.040;15.294;2022-08-21T08:55:00;2.88;;;1.13;;
65037;SDS011;51605;47.040;15.294;2022-08-21T08:57:32;1.13;;;0.90;;
65037;SDS011;51605;47.040;15.294;2022-08-21T09:00:01;1.02;;;0.90;;
65037;SDS011;51605;47.040;15.294;2022-08-21T09:02:36;1.15;;;0.82;;
65037;SDS011;51605;47.040;15.294;2022-08-21T09:05:04;1.45;;;0.88;;
65037;SDS011;51605;47.040;15.294;2022-08-21T09:16:45;1.42;;;0.93;;
65037;SDS011;51605;47.040;15.294;2022-08-21T09:21:20;1.45;;;0.90;;
65037;SDS011;51605;47.040;15.294;2022-08-21T09:29:28;1.13;;;1.00;;
65037;SDS011;51605;47.040;15.294;2022-08-21T09:31:58;1.23;;;0.90;;
65037;SDS011;51605;47.040;15.294;2022-08-21T09:34:27;2.05;;;1.05;;
65037;SDS011;51605;47.040;15.294;2022-08-21T09:36:55;2.50;;;0.90;;
65037;SDS011;51605;47.040;15.294;2022-08-21T09:39:42;1.60;;;1.10;;
65037;SDS011;51605;47.040;15.294;2022-08-21T09:42:07;1.58;;;1.10;;
65037;SDS011;51605;47.040;15.294;2022-08-21T09:44:39;2.33;;;1.00;;
65037;SDS011;51605;47.040;15.294;2022-08-21T09:47:08;1.75;;;0.90;;
65037;SDS011;51605;47.040;15.294;2022-08-21T09:49:39;1.00;;;0.90;;
65037;SDS011;51605;47.040;15.294;2022-08-21T09:52:12;1.77;;;1.05;;
65037;SDS011;51605;47.040;15.294;2022-08-21T10:00:11;1.23;;;0.90;;
65037;SDS011;51605;47.040;15.294;2022-08-21T10:02:51;1.58;;;1.00;;
65037;SDS011;51605;47.040;15.294;2022-08-21T10:07:45;1.30;;;1.13;;
65037;SDS011;51605;47.040;15.294;2022-08-21T10:12:54;1.90;;;0.90;;
65037;SDS011;51605;47.040;15.294;2022-08-21T10:20:55;2.83;;;1.02;;
65037;SDS011;51605;47.040;15.294;2022-08-21T10:23:36;2.35;;;1.00;;
65037;SDS011;51605;47.040;15.294;2022-08-21T10:26:25;0.98;;;0.90;;
65037;SDS011;51605;47.040;15.294;2022-08-21T10:39:25;1.70;;;1.00;;
65037;SDS011;51605;47.040;15.294;2022-08-21T10:55:11;1.10;;;0.90;;
65037;SDS011;51605;47.040;15.294;2022-08-21T11:00:24;2.85;;;1.05;;
65037;SDS011;51605;47.040;15.294;2022-08-21T11:08:44;1.45;;;0.90;;
65037;SDS011;51605;47.040;15.294;2022-08-21T11:11:22;1.50;;;1.00;;
65037;SDS011;51605;47.040;15.294;2022-08-21T11:13:52;1.75;;;0.98;;
65037;SDS011;51605;47.040;15.294;2022-08-21T11:16:45;1.70;;;1.00;;
65037;SDS011;51605;47.040;15.294;2022-08-21T11:19:21;1.30;;;0.95;;
65037;SDS011;51605;47.040;15.294;2022-08-21T11:21:57;1.90;;;0.93;;
65037;SDS011;51605;47.040;15.294;2022-08-21T11:29:54;2.13;;;1.10;;
65037;SDS011;51605;47.040;15.294;2022-08-21T11:35:26;1.80;;;1.27;;
65037;SDS011;51605;47.040;15.294;2022-08-21T11:43:35;2.15;;;1.27;;
65037;SDS011;51605;47.040;15.294;2022-08-21T11:46:28;2.97;;;1.35;;
65037;SDS011;51605;47.040;15.294;2022-08-21T11:51:33;1.75;;;1.20;;
65037;SDS011;51605;47.040;15.294;2022-08-21T11:54:13;2.28;;;1.40;;
65037;SDS011;51605;47.040;15.294;2022-08-21T11:59:20;1.63;;;1.13;;
65037;SDS011;51605;47.040;15.294;2022-08-21T12:01:50;2.28;;;1.20;;
65037;SDS011;51605;47.040;15.294;2022-08-21T12:04:20;2.13;;;1.15;;
65037;SDS011;51605;47.040;15.294;2022-08-21T12:07:12;2.45;;;1.10;;
65037;SDS011;51605;47.040;15.294;2022-08-21T12:09:53;1.13;;;1.02;;
65037;SDS011;51605;47.040;15.294;2022-08-21T12:15:03;2.17;;;1.27;;
65037;SDS011;51605;47.040;15.294;2022-08-21T12:17:35;2.50;;;1.20;;
65037;SDS011;51605;47.040;15.294;2022-08-21T12:28:34;3.60;;;1.17;;
65037;SDS011;51605;47.040;15.294;2022-08-21T12:30:59;2.15;;;1.50;;
65037;SDS011;51605;47.040;15.294;2022-08-21T12:33:27;1.67;;;1.30;;
65037;SDS011;51605;47.040;15.294;2022-08-21T12:36:11;1.55;;;1.00;;
65037;SDS011;51605;47.040;15.294;2022-08-21T12:41:33;2.80;;;1.30;;
65037;SDS011;51605;47.040;15.294;2022-08-21T12:44:04;2.45;;;1.20;;
65037;SDS011;51605;47.040;15.294;2022-08-21T12:52:41;1.63;;;1.20;;
65037;SDS011;51605;47.040;15.294;2022-08-21T12:55:35;1.88;;;1.17;;
65037;SDS011;51605;47.040;15.294;2022-08-21T12:58:06;1.70;;;1.20;;
65037;SDS011;51605;47.040;15.294;2022-08-21T13:00:32;2.85;;;1.25;;
65037;SDS011;51605;47.040;15.294;2022-08-21T13:02:57;1.83;;;1.30;;
65037;SDS011;51605;47.040;15.294;2022-08-21T13:08:03;2.13;;;1.30;;
65037;SDS011;51605;47.040;15.294;2022-08-21T13:10:33;2.15;;;1.30;;
65037;SDS011;51605;47.040;15.294;2022-08-21T13:13:04;1.55;;;1.10;;
65037;SDS011;51605;47.040;15.294;2022-08-21T13:15:34;1.77;;;1.30;;
65037;SDS011;51605;47.040;15.294;2022-08-21T13:18:02;1.55;;;1.15;;
65037;SDS011;51605;47.040;15.294;2022-08-21T13:20:37;2.50;;;1.20;;
65037;SDS011;51605;47.040;15.294;2022-08-21T13:23:06;2.33;;;1.20;;
65037;SDS011;51605;47.040;15.294;2022-08-21T13:25:51;1.55;;;1.00;;
65037;SDS011;51605;47.040;15.294;2022-08-21T13:28:17;2.33;;;1.05;;
65037;SDS011;51605;47.040;15.294;2022-08-21T13:33:11;2.35;;;1.27;;
65037;SDS011;51605;47.040;15.294;2022-08-21T13:38:24;2.17;;;1.02;;
65037;SDS011;51605;47.040;15.294;2022-08-21T13:40:57;26.40;;;1.80;;
65037;SDS011;51605;47.040;15.294;2022-08-21T13:43:45;6.47;;;1.60;;
65037;SDS011;51605;47.040;15.294;2022-08-21T13:46:13;5.22;;;1.20;;
65037;SDS011;51605;47.040;15.294;2022-08-21T13:48:40;3.38;;;1.10;;
65037;SDS011;51605;47.040;15.294;2022-08-21T13:51:06;4.85;;;1.23;;
65037;SDS011;51605;47.040;15.294;2022-08-21T13:53:35;6.45;;;1.50;;
65037;SDS011;51605;47.040;15.294;2022-08-21T13:56:02;2.67;;;1.17;;
65037;SDS011;51605;47.040;15.294;2022-08-21T13:58:31;2.83;;;0.98;;
65037;SDS011;51605;47.040;15.294;2022-08-21T14:01:15;2.20;;;0.90;;
65037;SDS011;51605;47.040;15.294;2022-08-21T14:03:48;3.15;;;0.90;;
65037;SDS011;51605;47.040;15.294;2022-08-21T14:06:18;1.85;;;1.00;;
65037;SDS011;51605;47.040;15.294;2022-08-21T14:08:58;1.55;;;0.90;;
65037;SDS011;51605;47.040;15.294;2022-08-21T14:11:26;2.40;;;1.02;;
65037;SDS011;51605;47.040;15.294;2022-08-21T14:18:47;2.73;;;0.93;;
65037;SDS011;51605;47.040;15.294;2022-08-21T14:21:31;5.20;;;1.13;;
65037;SDS011;51605;47.040;15.294;2022-08-21T14:24:05;2.97;;;1.30;;
65037;SDS011;51605;47.040;15.294;2022-08-21T14:26:37;2.40;;;0.95;;
65037;SDS011;51605;47.040;15.294;2022-08-21T14:29:14;1.85;;;0.90;;
65037;SDS011;51605;47.040;15.294;2022-08-21T14:31:41;2.28;;;1.15;;
65037;SDS011;51605;47.040;15.294;2022-08-21T14:34:09;4.57;;;1.10;;
65037;SDS011;51605;47.040;15.294;2022-08-21T14:36:36;2.22;;;1.35;;
65037;SDS011;51605;47.040;15.294;2022-08-21T14:39:02;3.13;;;1.00;;
65037;SDS011;51605;47.040;15.294;2022-08-21T14:41:28;1.33;;;0.83;;
65037;SDS011;51605;47.040;15.294;2022-08-21T14:43:54;2.30;;;0.97;;
65037;SDS011;51605;47.040;15.294;2022-08-21T14:46:25;3.97;;;1.00;;
65037;SDS011;51605;47.040;15.294;2022-08-21T14:48:53;1.75;;;0.90;;
65037;SDS011;51605;47.040;15.294;2022-08-21T14:51:19;5.68;;;1.10;;
65037;SDS011;51605;47.040;15.294;2022-08-21T14:53:45;5.37;;;0.90;;
65037;SDS011;51605;47.040;15.294;2022-08-21T14:56:12;4.38;;;0.90;;
65037;SDS011;51605;47.040;15.294;2022-08-21T15:01:09;4.90;;;1.10;;
65037;SDS011;51605;47.040;15.294;2022-08-21T15:03:37;2.13;;;0.80;;
65037;SDS011;51605;47.040;15.294;2022-08-21T15:06:03;2.00;;;0.90;;
65037;SDS011;51605;47.040;15.294;2022-08-21T15:08:31;3.78;;;1.27;;
65037;SDS011;51605;47.040;15.294;2022-08-21T15:10:57;4.40;;;1.00;;
65037;SDS011;51605;47.040;15.294;2022-08-21T15:13:25;3.85;;;0.95;;
65037;SDS011;51605;47.040;15.294;2022-08-21T15:15:51;1.65;;;0.93;;
65037;SDS011;51605;47.040;15.294;2022-08-21T15:18:21;2.75;;;1.25;;
65037;SDS011;51605;47.040;15.294;2022-08-21T15:20:48;2.47;;;0.90;;
65037;SDS011;51605;47.040;15.294;2022-08-21T15:23:14;1.10;;;0.70;;
65037;SDS011;51605;47.040;15.294;2022-08-21T15:25:41;2.42;;;0.90;;
65037;SDS011;51605;47.040;15.294;2022-08-21T15:28:09;3.03;;;1.05;;
65037;SDS011;51605;47.040;15.294;2022-08-21T15:30:36;2.80;;;1.10;;
65037;SDS011;51605;47.040;15.294;2022-08-21T15:33:04;5.78;;;1.02;;
65037;SDS011;51605;47.040;15.294;2022-08-21T15:35:29;3.40;;;1.10;;
65037;SDS011;51605;47.040;15.294;2022-08-21T15:37:55;3.93;;;1.10;;
65037;SDS011;51605;47.040;15.294;2022-08-21T15:40:21;2.87;;;1.00;;
65037;SDS011;51605;47.040;15.294;2022-08-21T15:42:47;2.37;;;1.10;;
65037;SDS011;51605;47.040;15.294;2022-08-21T15:45:13;3.07;;;0.90;;
65037;SDS011;51605;47.040;15.294;2022-08-21T15:47:42;2.78;;;1.00;;
65037;SDS011;51605;47.040;15.294;2022-08-21T15:50:09;2.67;;;1.00;;
65037;SDS011;51605;47.040;15.294;2022-08-21T15:52:36;4.65;;;1.00;;
65037;SDS011;51605;47.040;15.294;2022-08-21T15:55:02;3.40;;;0.83;;
65037;SDS011;51605;47.040;15.294;2022-08-21T15:57:29;2.90;;;1.10;;
65037;SDS011;51605;47.040;15.294;2022-08-21T15:59:58;2.20;;;1.00;;
65037;SDS011;51605;47.040;15.294;2022-08-21T16:02:34;2.20;;;1.00;;
65037;SDS011;51605;47.040;15.294;2022-08-21T16:05:01;2.20;;;1.00;;
65037;SDS011;51605;47.040;15.294;2022-08-21T16:07:27;1.65;;;0.90;;
65037;SDS011;51605;47.040;15.294;2022-08-21T16:09:53;3.95;;;0.82;;
65037;SDS011;51605;47.040;15.294;2022-08-21T16:12:29;2.13;;;0.80;;
65037;SDS011;51605;47.040;15.294;2022-08-21T16:14:58;3.42;;;1.00;;
65037;SDS011;51605;47.040;15.294;2022-08-21T16:17:26;1.98;;;1.00;;
65037;SDS011;51605;47.040;15.294;2022-08-21T16:19:54;4.63;;;0.90;;
65037;SDS011;51605;47.040;15.294;2022-08-21T16:22:21;2.40;;;0.90;;
65037;SDS011;51605;47.040;15.294;2022-08-21T16:24:46;1.97;;;1.00;;
65037;SDS011;51605;47.040;15.294;2022-08-21T16:27:12;2.70;;;1.00;;
65037;SDS011;51605;47.040;15.294;2022-08-21T16:29:38;1.30;;;0.80;;
65037;SDS011;51605;47.040;15.294;2022-08-21T16:32:04;2.92;;;0.90;;
65037;SDS011;51605;47.040;15.294;2022-08-21T16:34:31;3.88;;;1.10;;
65037;SDS011;51605;47.040;15.294;2022-08-21T16:36:57;2.00;;;0.90;;
65037;SDS011;51605;47.040;15.294;2022-08-21T16:39:23;1.73;;;0.83;;
65037;SDS011;51605;47.040;15.294;2022-08-21T16:41:49;1.63;;;0.80;;
65037;SDS011;51605;47.040;15.294;2022-08-21T16:44:15;3.50;;;0.95;;
65037;SDS011;51605;47.040;15.294;2022-08-21T16:46:43;1.38;;;0.80;;
65037;SDS011;51605;47.040;15.294;2022-08-21T16:49:09;2.77;;;1.00;;
65037;SDS011;51605;47.040;15.294;2022-08-21T16:51:35;1.07;;;0.90;;
65037;SDS011;51605;47.040;15.294;2022-08-21T16:56:28;2.22;;;0.85;;
65037;SDS011;51605;47.040;15.294;2022-08-21T17:01:22;1.13;;;0.80;;
65037;SDS011;51605;47.040;15.294;2022-08-21T17:03:51;1.77;;;1.00;;